createdAt,value
2022-11-16T00:02:28.482Z,55.70
2022-11-16T00:05:16.130Z,55.70
2022-11-16T00:08:03.472Z,55.80
2022-11-16T00:10:51.874Z,55.80
2022-11-16T00:13:40.380Z,55.90
2022-11-16T00:16:27.646Z,55.80
2022-11-16T00:19:14.793Z,55.90
2022-11-16T00:22:02.286Z,55.90
2022-11-16T00:24:49.600Z,55.90
2022-11-16T00:27:38.077Z,56.00
2022-11-16T00:30:25.316Z,56.10
2022-11-16T00:33:16.591Z,56.00
2022-11-16T00:36:05.180Z,56.20
2022-11-16T00:38:54.538Z,56.10
2022-11-16T00:41:41.782Z,56.20
2022-11-16T00:44:30.696Z,56.10
2022-11-16T00:47:18.083Z,56.20
2022-11-16T00:50:07.007Z,56.20
2022-11-16T00:52:55.061Z,56.20
2022-11-16T00:55:44.593Z,56.20
2022-11-16T00:58:33.480Z,56.20
2022-11-16T01:01:27.533Z,56.20
2022-11-16T01:04:14.953Z,56.30
2022-11-16T01:07:03.043Z,56.30
2022-11-16T01:09:50.465Z,56.30
2022-11-16T01:12:36.611Z,56.30
2022-11-16T01:15:26.712Z,56.30
2022-11-16T01:18:15.346Z,56.30
2022-11-16T01:21:02.344Z,56.40
2022-11-16T01:23:49.953Z,56.30
2022-11-16T01:26:37.378Z,56.30
2022-11-16T01:29:25.845Z,56.30
2022-11-16T01:32:17.117Z,56.30
2022-11-16T01:35:06.839Z,56.30
2022-11-16T01:37:55.294Z,56.50
2022-11-16T01:40:43.501Z,56.40
2022-11-16T01:43:30.659Z,56.50
2022-11-16T01:46:24.229Z,56.40
2022-11-16T01:49:15.897Z,56.50
2022-11-16T01:52:10.007Z,56.60
2022-11-16T01:54:58.433Z,56.70
2022-11-16T01:57:50.135Z,56.50
2022-11-16T02:00:37.517Z,56.60
2022-11-16T02:03:44.609Z,56.60
2022-11-16T02:06:50.657Z,56.70
2022-11-16T02:09:59.504Z,56.90
2022-11-16T02:13:17.658Z,56.90
2022-11-16T02:16:22.172Z,57.00
2022-11-16T02:19:44.967Z,56.90
2022-11-16T02:22:59.019Z,57.00
2022-11-16T02:26:01.910Z,57.00
2022-11-16T02:29:06.763Z,56.90
2022-11-16T02:32:00.629Z,56.90
2022-11-16T02:34:54.338Z,56.80
2022-11-16T02:37:51.484Z,56.90
2022-11-16T02:40:44.647Z,56.90
2022-11-16T02:43:39.823Z,57.60
2022-11-16T02:46:32.940Z,56.90
2022-11-16T02:49:21.550Z,56.90
2022-11-16T02:52:11.608Z,56.80
2022-11-16T02:54:58.704Z,56.80
2022-11-16T02:57:52.927Z,56.80
2022-11-16T03:00:48.234Z,57.00
2022-11-16T03:03:44.820Z,57.10
2022-11-16T03:06:36.004Z,57.10
2022-11-16T03:09:29.553Z,57.10
2022-11-16T03:12:20.471Z,57.10
2022-11-16T03:15:11.263Z,57.00
2022-11-16T03:18:01.681Z,57.10
2022-11-16T03:20:54.159Z,57.10
2022-11-16T03:23:41.151Z,57.20
2022-11-16T03:26:37.434Z,57.00
2022-11-16T03:29:32.054Z,57.10
2022-11-16T03:32:32.214Z,57.20
2022-11-16T03:35:23.515Z,57.10
2022-11-16T03:38:14.032Z,57.00
2022-11-16T03:41:09.026Z,57.10
2022-11-16T03:43:58.174Z,57.10
2022-11-16T03:46:46.711Z,57.00
2022-11-16T03:49:35.369Z,57.00
2022-11-16T03:52:23.109Z,57.00
2022-11-16T03:55:12.911Z,57.00
2022-11-16T03:58:02.004Z,57.10
2022-11-16T04:00:49.248Z,57.00
2022-11-16T04:03:36.216Z,57.10
2022-11-16T04:06:41.181Z,57.10
2022-11-16T04:09:45.806Z,57.10
2022-11-16T04:12:52.212Z,57.00
2022-11-16T04:15:56.847Z,57.10
2022-11-16T04:19:02.199Z,57.00
2022-11-16T04:22:12.051Z,57.10
2022-11-16T04:25:06.389Z,57.20
2022-11-16T04:28:13.320Z,57.20
2022-11-16T04:31:23.951Z,57.20
2022-11-16T04:34:55.046Z,57.00
2022-11-16T04:37:53.477Z,57.00
2022-11-16T04:40:46.223Z,57.00
2022-11-16T04:43:34.413Z,57.10
2022-11-16T04:46:39.347Z,57.20
2022-11-16T04:49:26.372Z,57.20
2022-11-16T04:52:16.196Z,57.20
2022-11-16T04:55:04.731Z,57.20
2022-11-16T04:57:52.844Z,57.20
2022-11-16T05:00:42.704Z,57.20
2022-11-16T05:03:30.915Z,57.30
2022-11-16T05:06:17.919Z,57.30
2022-11-16T05:09:05.669Z,57.30
2022-11-16T05:11:53.883Z,57.30
2022-11-16T05:14:41.196Z,57.20
2022-11-16T05:17:30.424Z,57.30
2022-11-16T05:20:37.377Z,57.40
2022-11-16T05:23:43.012Z,57.30
2022-11-16T05:26:33.703Z,57.30
2022-11-16T05:29:23.049Z,57.30
2022-11-16T05:32:12.724Z,57.40
2022-11-16T05:35:01.520Z,57.40
2022-11-16T05:37:48.728Z,57.50
2022-11-16T05:40:36.207Z,57.40
2022-11-16T05:43:23.517Z,57.40
2022-11-16T05:46:19.382Z,57.50
2022-11-16T05:49:09.219Z,57.50
2022-11-16T05:51:58.593Z,57.50
2022-11-16T05:54:45.891Z,57.50
2022-11-16T05:57:33.292Z,57.50
2022-11-16T06:00:21.492Z,57.50
2022-11-16T06:03:11.928Z,58.10
2022-11-16T06:05:59.672Z,57.50
2022-11-16T06:08:49.775Z,57.50
2022-11-16T06:11:42.095Z,57.50
2022-11-16T06:14:29.816Z,57.50
2022-11-16T06:17:18.474Z,57.50
2022-11-16T06:20:06.727Z,57.60
2022-11-16T06:22:53.722Z,57.60
2022-11-16T06:25:43.230Z,57.70
2022-11-16T06:28:32.029Z,57.70
2022-11-16T06:31:19.328Z,57.70
2022-11-16T06:34:06.962Z,57.60
2022-11-16T06:36:53.968Z,57.70
2022-11-16T06:39:41.690Z,57.70
2022-11-16T06:42:30.855Z,57.70
2022-11-16T06:45:19.627Z,57.70
2022-11-16T06:48:11.638Z,57.70
2022-11-16T06:50:58.653Z,57.70
2022-11-16T06:53:45.787Z,57.70
2022-11-16T06:56:35.663Z,57.70
2022-11-16T06:59:24.050Z,57.70
2022-11-16T07:02:12.153Z,57.70
2022-11-16T07:04:41.719Z,57.70
2022-11-16T07:07:10.434Z,57.70
2022-11-16T07:09:39.996Z,57.70
2022-11-16T07:12:09.550Z,57.70
2022-11-16T07:14:42.509Z,57.70
2022-11-16T07:17:12.930Z,57.80
2022-11-16T07:19:41.555Z,57.70
2022-11-16T07:22:10.168Z,57.70
2022-11-16T07:24:38.903Z,57.70
2022-11-16T07:27:09.443Z,57.80
2022-11-16T07:29:43.853Z,57.90
2022-11-16T07:32:32.718Z,57.90
2022-11-16T07:35:10.679Z,57.80
2022-11-16T07:37:40.461Z,57.80
2022-11-16T07:40:11.513Z,57.80
2022-11-16T07:42:42.098Z,57.90
2022-11-16T07:45:21.117Z,57.90
2022-11-16T07:47:55.389Z,58.00
2022-11-16T07:50:42.498Z,57.80
2022-11-16T07:53:11.637Z,57.80
2022-11-16T07:55:41.310Z,57.80
2022-11-16T07:58:10.997Z,57.90
2022-11-16T08:00:41.893Z,58.00
2022-11-16T08:03:20.447Z,58.00
2022-11-16T08:06:01.079Z,58.00
2022-11-16T08:08:30.713Z,58.20
2022-11-16T08:11:01.760Z,58.10
2022-11-16T08:13:34.043Z,58.20
2022-11-16T08:16:09.543Z,58.20
2022-11-16T08:18:39.286Z,58.30
2022-11-16T08:21:10.390Z,58.20
2022-11-16T08:23:41.991Z,58.10
2022-11-16T08:26:14.396Z,58.20
2022-11-16T08:28:47.772Z,58.30
2022-11-16T08:31:21.862Z,58.30
2022-11-16T08:33:54.274Z,58.40
2022-11-16T08:36:23.122Z,58.30
2022-11-16T08:38:53.472Z,58.30
2022-11-16T08:41:25.811Z,58.50
2022-11-16T08:43:55.291Z,58.60
2022-11-16T08:46:25.690Z,58.70
2022-11-16T08:49:02.765Z,58.80
2022-11-16T08:51:31.415Z,58.80
2022-11-16T08:54:06.394Z,58.70
2022-11-16T08:56:37.896Z,58.60
2022-11-16T08:59:07.154Z,58.60
2022-11-16T09:01:37.210Z,58.40
2022-11-16T09:04:06.176Z,58.40
2022-11-16T09:06:36.974Z,58.20
2022-11-16T09:09:06.058Z,58.10
2022-11-16T09:11:34.810Z,58.10
2022-11-16T09:14:03.425Z,58.10
2022-11-16T09:16:32.031Z,58.10
2022-11-16T09:19:02.987Z,58.00
2022-11-16T09:21:32.047Z,57.80
2022-11-16T09:24:00.674Z,57.90
2022-11-16T09:26:29.288Z,57.90
2022-11-16T09:28:59.951Z,57.90
2022-11-16T09:31:29.749Z,57.90
2022-11-16T09:34:01.023Z,57.80
2022-11-16T09:36:30.395Z,57.90
2022-11-16T09:39:29.955Z,57.90
2022-11-16T09:42:00.131Z,57.80
2022-11-16T09:44:57.482Z,57.80
2022-11-16T09:47:50.339Z,57.80
2022-11-16T09:50:48.715Z,57.70
2022-11-16T09:53:33.233Z,57.70
2022-11-16T09:56:06.033Z,57.50
2022-11-16T09:58:42.438Z,57.60
2022-11-16T10:01:23.972Z,57.50
2022-11-16T10:04:00.032Z,57.60
2022-11-16T10:06:43.388Z,57.60
2022-11-16T10:09:13.562Z,57.40
2022-11-16T10:12:15.763Z,57.40
2022-11-16T10:15:20.603Z,57.40
2022-11-16T10:18:06.845Z,57.40
2022-11-16T10:20:57.223Z,57.50
2022-11-16T10:23:43.436Z,57.50
2022-11-16T10:26:27.501Z,57.50
2022-11-16T10:29:15.728Z,57.50
2022-11-16T10:31:59.965Z,57.50
2022-11-16T10:34:43.903Z,57.50
2022-11-16T10:37:14.424Z,57.50
2022-11-16T10:39:44.477Z,57.40
2022-11-16T10:42:18.547Z,57.30
2022-11-16T10:44:52.865Z,57.20
2022-11-16T10:47:30.814Z,57.20
2022-11-16T10:50:06.488Z,57.20
2022-11-16T10:52:35.153Z,57.20
2022-11-16T10:55:06.052Z,57.10
2022-11-16T10:57:57.008Z,56.90
2022-11-16T11:00:48.707Z,56.90
2022-11-16T11:03:30.803Z,57.10
2022-11-16T11:06:00.305Z,57.00
2022-11-16T11:08:31.555Z,57.00
2022-11-16T11:11:24.590Z,57.00
2022-11-16T11:14:05.988Z,57.10
2022-11-16T11:16:34.696Z,57.00
2022-11-16T11:19:25.245Z,57.00
2022-11-16T11:21:58.434Z,57.00
2022-11-16T11:24:45.099Z,57.20
2022-11-16T11:27:23.990Z,57.20
2022-11-16T11:29:59.726Z,57.20
2022-11-16T11:32:34.231Z,57.10
2022-11-16T11:35:06.498Z,57.00
2022-11-16T11:37:38.304Z,57.00
2022-11-16T11:40:26.746Z,56.90
2022-11-16T11:43:02.131Z,56.60
2022-11-16T11:45:46.154Z,56.50
2022-11-16T11:48:31.210Z,56.40
2022-11-16T11:51:06.027Z,56.10
2022-11-16T11:53:47.047Z,56.40
2022-11-16T11:56:16.346Z,56.30
2022-11-16T11:58:48.473Z,56.30
2022-11-16T12:01:42.988Z,56.30
2022-11-16T12:05:02.846Z,56.20
2022-11-16T12:07:51.189Z,56.30
2022-11-16T12:10:30.383Z,56.20
2022-11-16T12:13:17.680Z,56.10
2022-11-16T12:16:04.829Z,56.10
2022-11-16T12:18:58.482Z,56.10
2022-11-16T12:21:43.481Z,56.10
2022-11-16T12:24:34.151Z,56.20
2022-11-16T12:27:17.905Z,56.10
2022-11-16T12:29:58.614Z,56.10
2022-11-16T12:33:04.886Z,56.80
2022-11-16T12:35:56.464Z,56.00
2022-11-16T12:38:42.204Z,56.10
2022-11-16T12:41:52.022Z,56.10
2022-11-16T12:44:29.703Z,56.10
2022-11-16T12:47:07.944Z,56.10
2022-11-16T12:50:03.353Z,56.10
2022-11-16T12:52:53.100Z,55.90
2022-11-16T12:55:31.544Z,55.90
2022-11-16T12:58:18.716Z,56.00
2022-11-16T13:00:57.979Z,56.00
2022-11-16T13:03:36.642Z,56.00
2022-11-16T13:06:11.401Z,56.00
2022-11-16T13:08:49.643Z,56.00
2022-11-16T13:11:23.699Z,55.90
2022-11-16T13:13:59.207Z,55.90
2022-11-16T13:16:29.036Z,55.90
2022-11-16T13:18:58.633Z,56.00
2022-11-16T13:21:39.529Z,56.00
2022-11-16T13:24:37.262Z,55.90
2022-11-16T13:27:31.645Z,55.90
2022-11-16T13:30:07.131Z,56.00
2022-11-16T13:32:55.313Z,55.90
2022-11-16T13:35:24.486Z,55.80
2022-11-16T13:37:54.467Z,55.90
2022-11-16T13:40:27.521Z,55.80
2022-11-16T13:43:17.957Z,55.90
2022-11-16T13:45:58.596Z,55.80
2022-11-16T13:48:33.404Z,55.70
2022-11-16T13:51:04.315Z,55.70
2022-11-16T13:56:29.386Z,55.70
2022-11-16T13:58:59.862Z,55.80
2022-11-16T14:01:56.608Z,55.80
2022-11-16T14:04:56.963Z,55.80
2022-11-16T14:07:40.622Z,55.80
2022-11-16T14:10:11.844Z,55.50
2022-11-16T14:12:58.518Z,55.60
2022-11-16T14:15:36.379Z,55.50
2022-11-16T14:18:37.115Z,55.60
2022-11-16T14:21:16.754Z,55.60
2022-11-16T14:24:05.709Z,55.70
2022-11-16T14:26:50.140Z,55.80
2022-11-16T14:29:44.538Z,55.80
2022-11-16T14:32:23.015Z,55.90
2022-11-16T14:34:54.517Z,55.80
2022-11-16T14:37:34.874Z,55.90
2022-11-16T14:40:08.659Z,55.70
2022-11-16T14:43:14.892Z,55.80
2022-11-16T14:45:39.799Z,55.70
2022-11-16T14:48:17.520Z,55.70
2022-11-16T14:50:48.163Z,55.60
2022-11-16T14:53:20.828Z,55.60
2022-11-16T14:55:49.411Z,55.60
2022-11-16T14:58:22.115Z,55.70
2022-11-16T15:00:55.336Z,55.40
2022-11-16T15:03:25.384Z,55.40
2022-11-16T15:05:54.052Z,55.30
2022-11-16T15:08:27.757Z,55.30
2022-11-16T15:10:57.751Z,55.10
2022-11-16T15:13:28.024Z,55.20
2022-11-16T15:16:17.261Z,55.20
2022-11-16T15:18:59.295Z,55.20
2022-11-16T15:21:28.085Z,55.10
2022-11-16T15:26:45.375Z,55.30
2022-11-16T15:29:19.939Z,55.30
2022-11-16T15:31:49.460Z,55.20
2022-11-16T15:34:19.878Z,55.40
2022-11-16T15:36:50.127Z,55.30
2022-11-16T15:39:22.234Z,55.30
2022-11-16T15:41:51.580Z,55.30
2022-11-16T15:44:23.921Z,55.30
2022-11-16T15:46:56.379Z,55.20
2022-11-16T15:49:30.592Z,55.30
2022-11-16T15:52:00.343Z,55.10
2022-11-16T15:54:31.089Z,55.10
2022-11-16T15:57:08.802Z,55.00
2022-11-16T15:59:39.086Z,55.20
2022-11-16T16:02:18.947Z,54.90
2022-11-16T16:04:47.648Z,54.90
2022-11-16T16:07:37.572Z,55.00
2022-11-16T16:10:25.792Z,54.90
2022-11-16T16:13:00.844Z,54.90
2022-11-16T16:15:36.152Z,55.00
2022-11-16T16:18:14.059Z,54.90
2022-11-16T16:20:48.981Z,54.90
2022-11-16T16:23:26.084Z,55.00
2022-11-16T16:25:54.694Z,55.00
2022-11-16T16:28:23.306Z,55.00
2022-11-16T16:30:54.223Z,54.90
2022-11-16T16:33:25.682Z,54.80
2022-11-16T16:35:54.337Z,54.90
2022-11-16T16:38:22.906Z,54.90
2022-11-16T16:40:51.489Z,54.90
2022-11-16T16:43:20.094Z,54.80
2022-11-16T16:45:48.806Z,54.80
2022-11-16T16:48:18.798Z,54.80
2022-11-16T16:50:47.472Z,54.80
2022-11-16T16:53:16.675Z,54.70
2022-11-16T16:55:50.408Z,54.70
2022-11-16T16:58:19.607Z,54.70
2022-11-16T17:00:48.310Z,54.70
2022-11-16T17:03:18.385Z,54.70
2022-11-16T17:05:47.163Z,54.70
2022-11-16T17:08:15.716Z,54.70
2022-11-16T17:10:44.315Z,54.60
2022-11-16T17:13:15.873Z,54.60
2022-11-16T17:15:44.578Z,54.60
2022-11-16T17:18:13.281Z,54.60
2022-11-16T17:20:45.478Z,54.60
2022-11-16T17:23:15.251Z,54.60
2022-11-16T17:25:44.121Z,54.60
2022-11-16T17:28:12.753Z,54.60
2022-11-16T17:30:41.379Z,54.60
2022-11-16T17:33:10.255Z,54.60
2022-11-16T17:35:38.851Z,54.60
2022-11-16T17:38:09.862Z,54.60
2022-11-16T17:40:38.437Z,54.50
2022-11-16T17:43:07.061Z,54.70
2022-11-16T17:45:35.825Z,54.70
2022-11-16T17:48:04.596Z,54.60
2022-11-16T17:50:33.250Z,54.60
2022-11-16T17:53:01.927Z,54.70
2022-11-16T17:55:32.609Z,54.80
2022-11-16T17:58:01.225Z,54.70
2022-11-16T18:00:29.963Z,54.80
2022-11-16T18:02:58.545Z,54.90
2022-11-16T18:05:27.150Z,54.90
2022-11-16T18:07:55.792Z,55.00
2022-11-16T18:10:24.396Z,55.00
2022-11-16T18:12:55.298Z,54.90
2022-11-16T18:15:28.805Z,55.00
2022-11-16T18:17:58.019Z,55.00
2022-11-16T18:20:27.771Z,55.00
2022-11-16T18:22:57.243Z,55.00
2022-11-16T18:25:26.408Z,55.00
2022-11-16T18:27:57.093Z,55.00
2022-11-16T18:30:26.093Z,54.90
2022-11-16T18:32:54.832Z,55.00
2022-11-16T18:35:23.449Z,55.00
2022-11-16T18:37:52.250Z,54.90
2022-11-16T18:40:20.959Z,54.90
2022-11-16T18:42:49.625Z,54.90
2022-11-16T18:45:20.007Z,54.90
2022-11-16T18:47:48.617Z,54.80
2022-11-16T18:50:22.605Z,54.80
2022-11-16T18:52:54.193Z,54.80
2022-11-16T18:55:22.810Z,54.80
2022-11-16T18:57:51.419Z,54.70
2022-11-16T19:00:22.432Z,54.80
2022-11-16T19:02:51.049Z,54.60
2022-11-16T19:05:19.768Z,54.60
2022-11-16T19:07:48.321Z,54.50
2022-11-16T19:10:17.037Z,54.50
2022-11-16T19:12:45.647Z,54.50
2022-11-16T19:15:14.234Z,54.50
2022-11-16T19:18:14.114Z,54.40
2022-11-16T19:20:33.830Z,54.30
2022-11-16T19:23:02.545Z,54.40
2022-11-16T19:25:31.145Z,54.30
2022-11-16T19:27:59.779Z,54.30
2022-11-16T19:30:28.382Z,54.30
2022-11-16T19:32:59.816Z,54.20
2022-11-16T19:35:28.499Z,54.20
2022-11-16T19:37:57.487Z,54.30
2022-11-16T19:40:26.180Z,54.40
2022-11-16T19:42:54.779Z,54.50
2022-11-16T19:45:23.382Z,54.50
2022-11-16T19:47:52.038Z,54.50
2022-11-16T19:50:24.136Z,54.50
2022-11-16T19:52:52.811Z,54.40
2022-11-16T19:55:21.490Z,54.50
2022-11-16T19:57:50.270Z,54.50
2022-11-16T20:00:19.585Z,54.50
2022-11-16T20:02:48.162Z,54.50
2022-11-16T20:05:16.916Z,54.50
2022-11-16T20:07:46.895Z,54.50
2022-11-16T20:10:15.532Z,54.40
2022-11-16T20:12:44.579Z,54.50
2022-11-16T20:15:13.205Z,54.60
2022-11-16T20:17:41.819Z,54.50
2022-11-16T20:20:11.614Z,55.10
2022-11-16T20:22:40.228Z,54.50
2022-11-16T20:25:11.157Z,54.50
2022-11-16T20:27:39.836Z,54.30
2022-11-16T20:30:10.127Z,54.30
2022-11-16T20:32:38.679Z,54.30
2022-11-16T20:35:07.666Z,54.40
2022-11-16T20:37:36.745Z,54.30
2022-11-16T20:40:06.720Z,54.30
2022-11-16T20:42:37.014Z,54.30
2022-11-16T20:45:07.136Z,54.20
2022-11-16T20:47:35.721Z,54.30
2022-11-16T20:50:05.048Z,54.40
2022-11-16T20:52:35.902Z,54.40
2022-11-16T20:55:08.035Z,54.40
2022-11-16T20:57:38.024Z,54.20
2022-11-16T21:00:08.303Z,54.10
2022-11-16T21:02:37.042Z,54.10
2022-11-16T21:05:24.328Z,54.10
2022-11-16T21:08:12.373Z,54.00
2022-11-16T21:10:59.550Z,54.10
2022-11-16T21:14:06.532Z,54.00
2022-11-16T21:16:53.671Z,54.00
2022-11-16T21:19:46.410Z,54.00
2022-11-16T21:22:46.833Z,54.00
2022-11-16T21:25:34.154Z,54.10
2022-11-16T21:28:25.332Z,54.00
2022-11-16T21:31:16.172Z,54.10
2022-11-16T21:34:03.413Z,54.10
2022-11-16T21:36:52.338Z,54.00
2022-11-16T21:39:39.415Z,54.10
2022-11-16T21:42:26.787Z,54.10
2022-11-16T21:45:13.683Z,54.20
2022-11-16T21:48:02.226Z,54.20
2022-11-16T21:50:49.531Z,54.10
2022-11-16T21:53:37.307Z,54.30
2022-11-16T21:56:26.953Z,54.20
2022-11-16T21:59:13.961Z,54.20
2022-11-16T22:02:01.165Z,54.20
2022-11-16T22:05:06.840Z,54.30
2022-11-16T22:07:53.914Z,54.20
2022-11-16T22:10:41.258Z,54.10
2022-11-16T22:13:28.400Z,54.10
2022-11-16T22:16:16.635Z,54.10
2022-11-16T22:19:03.712Z,54.10
2022-11-16T22:21:53.144Z,54.00
2022-11-16T22:24:40.668Z,54.00
2022-11-16T22:27:28.454Z,54.00
2022-11-16T22:30:16.648Z,54.10
2022-11-16T22:33:03.933Z,54.10
2022-11-16T22:35:51.148Z,54.00
2022-11-16T22:38:40.037Z,54.20
2022-11-16T22:41:27.192Z,54.20
2022-11-16T22:44:14.327Z,54.20
2022-11-16T22:47:01.408Z,54.10
2022-11-16T22:49:48.499Z,54.10
2022-11-16T22:52:35.918Z,54.20
2022-11-16T22:55:24.468Z,54.20
2022-11-16T22:58:11.692Z,54.20
2022-11-16T23:00:58.821Z,54.30
2022-11-16T23:03:46.936Z,54.30
2022-11-16T23:06:34.329Z,54.30
2022-11-16T23:09:21.594Z,54.30
2022-11-16T23:12:27.917Z,54.20
2022-11-16T23:15:33.155Z,54.20
2022-11-16T23:18:20.747Z,54.20
2022-11-16T23:21:25.529Z,54.20
2022-11-16T23:24:30.888Z,54.30
2022-11-16T23:27:31.489Z,54.30
2022-11-16T23:30:18.978Z,54.30
2022-11-16T23:33:06.314Z,54.30
2022-11-16T23:35:53.350Z,54.30
2022-11-16T23:38:40.746Z,54.30
2022-11-16T23:41:45.208Z,54.40
2022-11-16T23:44:33.650Z,54.40
2022-11-16T23:47:20.947Z,54.20
2022-11-16T23:50:08.839Z,54.30
2022-11-16T23:52:55.934Z,54.20
2022-11-16T23:55:43.045Z,54.00
2022-11-16T23:58:29.937Z,54.00
